Time;durP1;ratioP1;P1;durP2;ratioP2;P2;SDS_P1;SDS_P2;PMS_P1;PMS_P2;Temp;Humidity;BMP_temperature;BMP_pressure;BME280_temperature;BME280_humidity;BME280_pressure;Samples;Min_cycle;Max_cycle;Signal;HPM_P1;HPM_P2
2022/01/08 00:01:29;;;;;;;4.80;0.90;;;;;;;25.49;30.41;96071.03;5003924;28;20025;-30
2022/01/08 00:03:54;;;;;;;2.88;0.88;;;;;;;25.50;30.53;96058.75;5002040;28;20029;-30
2022/01/08 00:06:20;;;;;;;1.48;0.60;;;;;;;25.50;30.48;96059.59;5002738;28;20029;-30
2022/01/08 00:08:45;;;;;;;1.30;0.60;;;;;;;25.50;30.42;96041.22;5003876;28;20083;-32
2022/01/08 00:11:14;;;;;;;1.63;0.88;;;;;;;25.51;30.61;96034.22;5001271;28;20033;-33
2022/01/08 00:13:40;;;;;;;3.60;0.60;;;;;;;25.51;30.52;96032.41;5002146;28;20052;-31
2022/01/08 00:16:06;;;;;;;0.65;0.43;;;;;;;25.52;30.28;96022.78;4998698;28;20756;-32
2022/01/08 00:18:32;;;;;;;1.35;0.65;;;;;;;25.51;30.55;96016.69;5016865;28;20025;-29
2022/01/08 00:20:57;;;;;;;1.50;0.50;;;;;;;25.52;30.51;96013.09;5000942;28;20060;-31
2022/01/08 00:23:22;;;;;;;1.52;0.60;;;;;;;25.50;30.43;96009.75;5002520;28;20057;-29
2022/01/08 00:25:48;;;;;;;0.88;0.70;;;;;;;25.51;30.38;96006.19;5004358;28;20060;-29
2022/01/08 00:28:14;;;;;;;0.50;0.45;;;;;;;25.51;30.54;96000.94;5006959;28;20071;-32
2022/01/08 00:30:39;;;;;;;1.65;0.50;;;;;;;25.52;30.41;96018.34;5008118;28;20459;-30
2022/01/08 00:33:04;;;;;;;1.27;0.55;;;;;;;25.53;30.59;96009.56;5001477;28;20689;-33
2022/01/08 00:35:32;;;;;;;1.02;0.60;;;;;;;25.52;30.62;95994.75;5003680;28;20113;-30
2022/01/08 00:37:58;;;;;;;0.93;0.60;;;;;;;25.52;30.49;96000.00;5006142;28;20098;-31
2022/01/08 00:40:23;;;;;;;0.88;0.50;;;;;;;25.53;30.51;95993.81;5006336;28;20037;-30
2022/01/08 00:42:49;;;;;;;2.08;0.60;;;;;;;25.53;30.55;95990.34;5009377;28;20993;-33
2022/01/08 00:45:14;;;;;;;0.80;0.68;;;;;;;25.52;30.43;95984.25;5004756;28;20029;-29
2022/01/08 00:47:39;;;;;;;1.95;0.68;;;;;;;25.53;30.48;95983.34;5006170;28;20103;-32
2022/01/08 00:50:05;;;;;;;1.45;0.60;;;;;;;25.52;30.50;95981.63;4996379;28;20979;-29
2022/01/08 00:52:31;;;;;;;1.02;0.65;;;;;;;25.53;30.45;95977.22;5004864;28;20032;-30
2022/01/08 00:54:56;;;;;;;0.98;0.50;;;;;;;25.53;30.41;95970.22;5007369;28;20022;-30
2022/01/08 00:57:22;;;;;;;1.63;0.57;;;;;;;25.53;30.55;95967.59;5007253;28;21925;-27
2022/01/08 00:59:47;;;;;;;1.15;0.50;;;;;;;25.52;30.36;95963.25;5007496;28;20030;-29
2022/01/08 01:02:13;;;;;;;1.52;0.50;;;;;;;25.52;30.48;95957.19;5005147;28;20228;-33
2022/01/08 01:04:38;;;;;;;0.30;0.30;;;;;;;25.52;30.40;95950.16;5003409;28;20034;-30
2022/01/08 01:07:03;;;;;;;0.98;0.60;;;;;;;25.52;30.50;95944.91;5007775;28;20034;-33
2022/01/08 01:09:29;;;;;;;0.57;0.52;;;;;;;25.52;30.49;95946.69;5011168;28;20826;-28
2022/01/08 01:11:57;;;;;;;0.32;0.30;;;;;;;25.52;30.40;95937.03;5003245;28;20037;-34
2022/01/08 01:14:26;;;;;;;0.82;0.50;;;;;;;25.51;30.51;95930.09;5007134;28;20036;-33
2022/01/08 01:16:51;;;;;;;1.95;0.40;;;;;;;25.51;30.51;95922.25;5005012;28;22040;-30
2022/01/08 01:19:17;;;;;;;0.55;0.40;;;;;;;25.51;30.46;95913.53;5004420;28;20037;-32
2022/01/08 01:21:42;;;;;;;0.88;0.60;;;;;;;25.51;30.36;95908.31;5003762;28;20021;-31
2022/01/08 01:24:14;;;;;;;0.43;0.40;;;;;;;25.51;30.50;95911.75;5004181;28;20032;-29
2022/01/08 01:26:48;;;;;;;0.93;0.50;;;;;;;25.51;30.42;95901.25;5004336;28;20034;-29
2022/01/08 01:29:29;;;;;;;1.20;0.45;;;;;;;25.49;30.51;95892.66;5006408;28;20057;-30
2022/01/08 01:48:22;;;;;;;0.88;0.52;;;;;;;25.47;30.44;95842.06;5004108;28;20037;-32
2022/01/08 01:50:47;;;;;;;0.75;0.47;;;;;;;25.47;30.42;95831.56;5011680;28;20743;-30
2022/01/08 01:53:13;;;;;;;1.23;0.70;;;;;;;25.46;30.47;95814.16;5007093;28;20788;-29
2022/01/08 01:55:42;;;;;;;0.50;0.40;;;;;;;25.45;30.44;95817.75;5008439;28;20507;-28
2022/01/08 01:58:11;;;;;;;0.85;0.40;;;;;;;25.46;30.36;95827.28;5009860;28;20116;-29
2022/01/08 02:00:36;;;;;;;1.08;0.30;;;;;;;25.46;30.47;95822.03;5003494;28;20511;-32
2022/01/08 02:03:02;;;;;;;1.13;0.50;;;;;;;25.44;30.40;95822.13;5007220;28;20072;-29
2022/01/08 02:05:27;;;;;;;0.55;0.50;;;;;;;25.46;30.55;95816.78;5010371;28;20069;-29
2022/01/08 02:07:55;;;;;;;1.67;0.32;;;;;;;25.44;30.42;95811.63;5006855;28;20034;-30
2022/01/08 02:10:21;;;;;;;0.77;0.38;;;;;;;25.45;30.57;95817.75;5008918;28;20030;-30
2022/01/08 02:12:46;;;;;;;2.00;0.38;;;;;;;25.45;30.45;95807.25;5008601;28;20029;-29
2022/01/08 02:15:12;;;;;;;0.60;0.40;;;;;;;25.44;30.43;95798.53;5007063;28;20742;-29
2022/01/08 02:17:37;;;;;;;0.30;0.30;;;;;;;25.44;30.62;95798.53;5007760;28;20045;-31
2022/01/08 02:20:03;;;;;;;1.60;0.35;;;;;;;25.43;30.56;95798.63;5009279;28;20029;-29
2022/01/08 02:22:28;;;;;;;0.45;0.30;;;;;;;25.44;30.44;95787.22;5010481;28;20034;-31
2022/01/08 02:24:54;;;;;;;0.50;0.40;;;;;;;25.43;30.56;95790.75;5010769;28;20511;-29
2022/01/08 02:27:19;;;;;;;0.55;0.40;;;;;;;25.44;30.56;95779.34;5010129;28;20033;-29
2022/01/08 02:29:45;;;;;;;0.73;0.35;;;;;;;25.44;30.49;95779.34;5008192;28;20033;-31
2022/01/08 02:32:15;;;;;;;0.70;0.40;;;;;;;25.44;30.40;95774.09;5008763;28;20036;-30
2022/01/08 02:34:41;;;;;;;0.70;0.40;;;;;;;25.44;30.44;95768.84;5006597;28;20021;-28
2022/01/08 02:37:06;;;;;;;1.17;0.50;;;;;;;25.43;30.54;95768.00;5009368;28;20039;-29
2022/01/08 02:39:38;;;;;;;0.47;0.40;;;;;;;25.44;30.36;95763.59;5003602;28;20510;-30
2022/01/08 02:42:03;;;;;;;0.70;0.40;;;;;;;25.43;30.32;95761.91;5008461;28;20113;-30
2022/01/08 02:44:29;;;;;;;0.52;0.40;;;;;;;25.44;30.60;95760.97;5008067;28;20980;-30
2022/01/08 02:46:54;;;;;;;0.32;0.32;;;;;;;25.43;30.34;95751.41;5009837;28;20056;-31
2022/01/08 02:49:23;;;;;;;0.93;0.40;;;;;;;25.42;30.42;95750.59;5004590;28;20088;-32
2022/01/08 02:51:49;;;;;;;0.40;0.30;;;;;;;25.43;30.47;95756.66;5007044;28;20018;-28
2022/01/08 02:54:14;;;;;;;0.73;0.30;;;;;;;25.42;30.42;95747.13;5006952;28;20041;-29
2022/01/08 02:56:44;;;;;;;0.60;0.50;;;;;;;25.41;30.50;95743.69;5010372;28;20033;-30
2022/01/08 02:59:10;;;;;;;0.85;0.40;;;;;;;25.43;30.56;95740.91;5007869;28;20082;-29
2022/01/08 03:01:36;;;;;;;1.05;0.38;;;;;;;25.42;30.46;95736.63;5009482;28;20025;-31
2022/01/08 03:04:02;;;;;;;0.90;0.30;;;;;;;25.42;30.39;95739.25;5007290;28;20037;-29
2022/01/08 03:06:27;;;;;;;0.22;0.20;;;;;;;25.42;30.49;95734.00;5007816;28;20030;-29
2022/01/08 03:08:52;;;;;;;0.45;0.20;;;;;;;25.42;30.54;95726.13;5009388;28;20041;-29
2022/01/08 03:11:18;;;;;;;1.20;0.30;;;;;;;25.42;30.56;95728.75;5005872;28;20083;-29
2022/01/08 03:13:43;;;;;;;0.77;0.47;;;;;;;25.41;30.47;95722.69;5006013;28;20556;-29
2022/01/08 03:16:09;;;;;;;2.72;0.60;;;;;;;25.42;30.46;95713.88;5009309;28;20507;-28
2022/01/08 03:18:36;;;;;;;0.88;0.50;;;;;;;25.41;30.48;95714.81;5005859;28;20029;-30
2022/01/08 03:21:11;;;;;;;0.95;0.45;;;;;;;25.42;30.61;95718.28;5010733;28;20032;-33
2022/01/08 03:23:43;;;;;;;0.82;0.30;;;;;;;25.42;30.44;95715.66;5009097;28;20281;-31
2022/01/08 03:26:08;;;;;;;;;;;;;;;25.41;30.49;95701.72;5008427;28;20026;-29
2022/01/08 03:28:34;;;;;;;0.45;0.30;;;;;;;25.41;30.66;95706.09;5006987;28;19971;-31
2022/01/08 03:30:59;;;;;;;0.20;0.20;;;;;;;25.40;30.29;95704.44;5009143;28;20113;-28
2022/01/08 03:33:25;;;;;;;0.40;0.30;;;;;;;25.39;30.60;95692.25;5006408;28;20029;-28
2022/01/08 03:35:50;;;;;;;0.65;0.40;;;;;;;25.39;30.46;95697.50;5009420;28;20034;-29
2022/01/08 03:38:15;;;;;;;0.55;0.28;;;;;;;25.38;30.50;95690.56;5007449;28;20442;-30
2022/01/08 03:40:41;;;;;;;0.32;0.30;;;;;;;25.38;30.64;95691.44;5002250;28;20117;-31
2022/01/08 03:43:06;;;;;;;0.45;0.30;;;;;;;25.39;30.50;95697.50;5003771;28;20239;-30
2022/01/08 03:45:32;;;;;;;0.50;0.50;;;;;;;25.37;30.46;95697.63;4990749;28;20037;-29
2022/01/08 03:48:18;;;;;;;0.70;0.38;;;;;;;25.38;30.61;95695.81;5009404;28;20473;-32
2022/01/08 03:50:45;;;;;;;0.30;0.20;;;;;;;25.38;30.56;95695.81;5006527;28;20048;-31
2022/01/08 03:53:10;;;;;;;0.28;0.20;;;;;;;25.38;30.61;95701.06;5009949;28;20025;-30
2022/01/08 03:55:36;;;;;;;0.32;0.30;;;;;;;25.37;30.60;95689.75;4988572;28;20017;-34
2022/01/08 03:58:01;;;;;;;0.30;0.30;;;;;;;25.38;30.52;95701.06;5003258;28;20552;-30
2022/01/08 04:00:26;;;;;;;0.50;0.30;;;;;;;25.38;30.67;95698.44;5008127;28;20044;-30
2022/01/08 04:02:53;;;;;;;0.25;0.20;;;;;;;25.38;30.62;95706.31;5007682;28;20033;-30
2022/01/08 04:05:19;;;;;;;0.98;0.50;;;;;;;25.38;30.71;95711.56;5007960;28;20033;-29
2022/01/08 04:07:44;;;;;;;0.93;0.30;;;;;;;25.38;30.54;95708.94;5007400;28;20030;-29
2022/01/08 04:10:10;;;;;;;1.55;0.30;;;;;;;25.37;30.55;95717.75;5004187;28;20029;-28
2022/01/08 04:12:43;;;;;;;0.50;0.20;;;;;;;25.37;30.73;95715.13;5000720;28;20041;-30
2022/01/08 04:15:31;;;;;;;0.30;0.30;;;;;;;25.37;30.66;95720.38;5008599;28;20575;-32
2022/01/08 04:17:54;;;;;;;0.57;0.30;;;;;;;25.37;30.57;95725.63;5009369;28;20133;-33
2022/01/08 04:20:21;;;;;;;1.17;0.40;;;;;;;25.37;30.74;95725.63;5007848;28;20463;-28
2022/01/08 04:22:49;;;;;;;0.43;0.30;;;;;;;25.38;30.56;95732.53;4991424;28;20029;-30
2022/01/08 04:25:15;;;;;;;0.88;0.38;;;;;;;25.37;30.74;95723.00;5007283;28;20731;-29
2022/01/08 04:27:41;;;;;;;0.60;0.30;;;;;;;25.36;30.52;95721.31;5009286;28;20034;-30
2022/01/08 04:30:06;;;;;;;0.40;0.28;;;;;;;25.37;30.72;95726.47;5009009;28;20530;-29
2022/01/08 04:32:32;;;;;;;0.52;0.30;;;;;;;25.38;30.63;95720.28;5006225;28;20080;-30
2022/01/08 04:34:57;;;;;;;0.43;0.30;;;;;;;25.38;30.69;95732.53;5008292;28;20045;-32
2022/01/08 04:37:23;;;;;;;0.32;0.22;;;;;;;25.37;30.63;95731.72;5008384;28;20036;-30
2022/01/08 04:39:48;;;;;;;0.20;0.20;;;;;;;25.39;30.64;95739.44;5006970;28;20029;-30
2022/01/08 04:42:13;;;;;;;0.95;0.50;;;;;;;25.38;30.72;95743.03;5004894;28;20028;-30
2022/01/08 04:44:39;;;;;;;0.77;0.30;;;;;;;25.39;30.67;95739.44;5007436;28;20025;-29
2022/01/08 04:47:04;;;;;;;0.20;0.20;;;;;;;25.37;30.75;95736.09;5008196;28;20101;-31
2022/01/08 04:49:29;;;;;;;0.55;0.20;;;;;;;25.38;30.76;95737.78;5010712;28;20037;-30
2022/01/08 04:51:56;;;;;;;0.20;0.20;;;;;;;25.37;30.58;95741.34;5007642;28;20037;-28
2022/01/08 04:54:21;;;;;;;0.25;0.20;;;;;;;25.37;30.59;95742.19;5005805;28;20091;-29
2022/01/08 04:56:47;;;;;;;0.60;0.22;;;;;;;25.37;30.59;95749.22;5007496;28;20053;-29
2022/01/08 04:59:12;;;;;;;0.40;0.40;;;;;;;25.37;30.74;95749.22;5008709;28;20030;-30
2022/01/08 05:01:37;;;;;;;0.32;0.28;;;;;;;25.37;30.71;95757.09;5008072;28;20041;-32
2022/01/08 05:04:03;;;;;;;0.20;0.20;;;;;;;25.36;30.59;95750.16;5003335;28;20024;-29
2022/01/08 05:06:28;;;;;;;0.82;0.20;;;;;;;25.37;30.83;95757.09;4984967;28;20095;-29
2022/01/08 05:08:54;;;;;;;0.20;0.20;;;;;;;25.35;30.75;95759.81;5006511;28;20070;-30
2022/01/08 05:11:19;;;;;;;0.98;0.30;;;;;;;25.36;30.62;95771.16;5007122;28;20085;-29
2022/01/08 05:13:45;;;;;;;2.78;0.60;;;;;;;25.35;30.90;95772.09;5009422;28;20029;-34
2022/01/08 05:16:11;;;;;;;3.60;0.50;;;;;;;25.34;30.79;95783.50;5007061;28;20034;-29
2022/01/08 05:18:37;;;;;;;2.58;0.50;;;;;;;25.31;30.94;95788.03;5005995;28;20349;-28
2022/01/08 05:21:15;;;;;;;3.28;0.60;;;;;;;25.31;30.98;95797.66;5010819;28;20034;-28
2022/01/08 05:23:41;;;;;;;0.45;0.20;;;;;;;25.30;31.04;95809.97;5011110;28;20140;-30
2022/01/08 05:26:06;;;;;;;0.63;0.20;;;;;;;25.29;30.99;95812.69;5008088;28;20029;-33
2022/01/08 05:28:31;;;;;;;0.40;0.30;;;;;;;25.29;30.94;95817.94;5007731;28;20400;-31
2022/01/08 05:30:57;;;;;;;0.30;0.30;;;;;;;25.29;30.98;95828.41;5006708;28;20441;-28
2022/01/08 05:33:22;;;;;;;2.63;0.30;;;;;;;25.27;31.05;95833.75;5005569;28;20034;-29
2022/01/08 05:35:48;;;;;;;1.65;0.20;;;;;;;25.27;31.16;95844.25;5008799;28;20523;-31
2022/01/08 05:38:13;;;;;;;0.30;0.20;;;;;;;25.28;31.06;95852.97;5007118;28;20630;-28
2022/01/08 05:40:38;;;;;;;0.57;0.20;;;;;;;25.27;30.99;95857.34;5007688;28;20057;-28
2022/01/08 05:43:04;;;;;;;2.28;0.20;;;;;;;25.27;31.01;95862.59;5010218;28;20029;-29
2022/01/08 05:45:29;;;;;;;1.02;0.40;;;;;;;25.27;30.99;95867.84;5005267;28;20044;-26
2022/01/08 05:47:55;;;;;;;1.05;0.50;;;;;;;25.27;30.94;95874.84;5007705;28;20478;-30
2022/01/08 05:50:20;;;;;;;0.50;0.30;;;;;;;25.28;30.88;95889.69;5005568;28;20083;-32
2022/01/08 05:52:48;;;;;;;0.20;0.20;;;;;;;25.29;31.04;95901.84;5005669;28;20033;-29
2022/01/08 05:55:13;;;;;;;0.95;0.40;;;;;;;25.28;31.03;95898.38;5003377;28;20152;-30
2022/01/08 05:57:39;;;;;;;0.98;0.30;;;;;;;25.29;31.02;95917.56;5007685;28;20034;-29
2022/01/08 06:00:07;;;;;;;3.17;0.38;;;;;;;25.28;30.79;95937.69;5010237;28;20045;-30
2022/01/08 06:02:32;;;;;;;6.05;0.30;;;;;;;25.28;30.83;95948.19;5005941;28;20095;-29
2022/01/08 06:04:57;;;;;;;0.40;0.30;;;;;;;25.27;30.96;95954.38;5011030;28;20506;-29
2022/01/08 06:07:23;;;;;;;3.35;0.32;;;;;;;25.27;30.90;95962.25;5007780;28;20595;-27
2022/01/08 06:09:48;;;;;;;0.35;0.22;;;;;;;25.29;31.00;95972.63;5007300;28;20554;-28
2022/01/08 06:12:14;;;;;;;0.65;0.20;;;;;;;25.28;30.88;95973.59;5008625;28;20026;-29
2022/01/08 06:14:39;;;;;;;0.20;0.20;;;;;;;25.28;30.93;95992.75;5008439;28;20036;-29
2022/01/08 06:17:04;;;;;;;0.25;0.20;;;;;;;25.29;30.88;96006.72;4994814;28;22038;-30
2022/01/08 06:19:30;;;;;;;1.27;0.28;;;;;;;25.30;30.83;96013.66;5008175;28;20608;-32
2022/01/08 06:21:55;;;;;;;2.65;0.35;;;;;;;25.29;30.76;96030.34;4988450;28;20042;-30
2022/01/08 06:24:21;;;;;;;3.65;0.22;;;;;;;25.29;30.87;96028.53;5009691;28;20052;-28
2022/01/08 06:26:46;;;;;;;0.50;0.30;;;;;;;25.30;30.88;96022.38;5008754;28;20036;-29
2022/01/08 06:29:11;;;;;;;2.67;0.20;;;;;;;25.29;30.85;96039.03;5005214;28;22266;-29
2022/01/08 06:31:37;;;;;;;1.05;0.30;;;;;;;25.29;30.65;96035.56;5009111;28;20026;-30
2022/01/08 06:34:03;;;;;;;0.32;0.20;;;;;;;25.29;30.82;96036.41;5010164;28;20076;-33
2022/01/08 06:36:29;;;;;;;1.58;0.30;;;;;;;25.30;30.86;96051.22;5007094;28;20030;-29
2022/01/08 06:38:54;;;;;;;0.20;0.20;;;;;;;25.31;30.78;96052.03;5009765;28;20138;-29
2022/01/08 06:41:20;;;;;;;1.35;0.20;;;;;;;25.31;30.68;96059.91;5009268;28;20040;-29
2022/01/08 06:43:45;;;;;;;0.45;0.20;;;;;;;25.30;30.83;96066.97;5009112;28;20041;-29
2022/01/08 06:46:10;;;;;;;0.45;0.38;;;;;;;25.31;30.76;96066.00;5006131;28;20029;-29
2022/01/08 06:48:36;;;;;;;0.85;0.38;;;;;;;25.31;30.64;96073.88;5006369;28;21038;-29
2022/01/08 06:51:02;;;;;;;0.10;0.10;;;;;;;25.34;30.59;96098.22;5008802;28;20025;-28
2022/01/08 06:53:27;;;;;;;1.17;0.35;;;;;;;25.31;30.78;96099.25;5007558;28;20508;-29
2022/01/08 06:55:53;;;;;;;1.55;0.20;;;;;;;25.34;30.61;96113.94;5009058;28;20034;-32
2022/01/08 06:58:20;;;;;;;1.55;0.20;;;;;;;25.34;30.47;96122.66;5010028;28;20026;-29
2022/01/08 07:00:46;;;;;;;1.27;0.30;;;;;;;25.35;30.58;96126.16;5008548;28;20039;-34
2022/01/08 07:03:11;;;;;;;1.10;0.40;;;;;;;25.35;30.60;96136.63;5011573;28;20029;-31
2022/01/08 07:05:37;;;;;;;0.77;0.30;;;;;;;25.34;30.51;96141.03;5005507;28;20036;-29
2022/01/08 07:08:03;;;;;;;0.45;0.20;;;;;;;25.35;30.60;96144.50;5009332;28;20080;-29
2022/01/08 07:10:28;;;;;;;7.88;0.43;;;;;;;25.36;30.59;96154.06;5004740;28;20478;-29
2022/01/08 07:12:54;;;;;;;0.75;0.30;;;;;;;25.35;30.59;96161.06;5008892;28;20037;-29
2022/01/08 07:15:19;;;;;;;1.95;0.20;;;;;;;25.37;30.43;96171.47;5010295;28;20033;-30
2022/01/08 07:17:44;;;;;;;0.25;0.25;;;;;;;25.37;30.35;96160.97;5022061;28;20026;-31
2022/01/08 07:20:10;;;;;;;0.40;0.20;;;;;;;25.38;30.69;96173.16;5006854;28;20606;-30
2022/01/08 07:22:36;;;;;;;0.75;0.40;;;;;;;25.38;30.57;96179.25;5007547;28;20124;-32
2022/01/08 07:25:03;;;;;;;2.08;0.30;;;;;;;25.37;30.60;96176.72;4999794;28;20018;-30
2022/01/08 07:27:30;;;;;;;0.50;0.30;;;;;;;25.37;30.64;96193.31;5009021;28;20026;-29
2022/01/08 07:29:55;;;;;;;2.45;0.80;;;;;;;25.39;30.42;96206.31;5005449;28;20567;-30
2022/01/08 07:32:21;;;;;;;11.88;2.90;;;;;;;25.39;30.47;96199.28;4974156;28;20034;-29
2022/01/08 07:34:46;;;;;;;10.20;3.10;;;;;;;25.40;30.45;96202.75;5002754;28;20033;-32
2022/01/08 07:37:11;;;;;;;19.08;4.00;;;;;;;25.40;30.45;96202.75;4987924;28;20088;-31
2022/01/08 07:39:37;;;;;;;12.07;3.88;;;;;;;25.40;30.44;96224.56;5003749;28;20030;-30
2022/01/08 07:42:03;;;;;;;14.65;3.90;;;;;;;25.41;30.58;96228.06;5002427;28;21159;-30
2022/01/08 07:44:28;;;;;;;15.63;3.92;;;;;;;25.42;30.65;96232.34;5003399;28;20034;-31
2022/01/08 07:46:53;;;;;;;8.98;3.67;;;;;;;25.42;30.58;96237.59;5002633;28;20705;-31
2022/01/08 07:49:19;;;;;;;12.23;3.70;;;;;;;25.42;30.57;96248.09;5002711;28;20036;-32
2022/01/08 07:51:44;;;;;;;10.18;3.72;;;;;;;25.42;30.39;96248.09;5001826;28;20025;-30
2022/01/08 07:54:10;;;;;;;9.38;3.17;;;;;;;25.42;30.68;96259.44;4998447;28;20110;-29
2022/01/08 07:56:36;;;;;;;11.35;3.50;;;;;;;25.42;30.47;96275.19;5001410;28;20036;-32
2022/01/08 07:59:01;;;;;;;10.73;3.17;;;;;;;25.43;30.42;96273.38;4989049;28;20128;-28
2022/01/08 08:01:27;;;;;;;9.40;2.97;;;;;;;25.43;30.29;96286.50;5003136;28;20449;-30
2022/01/08 08:03:52;;;;;;;7.32;2.85;;;;;;;25.44;30.38;96296.06;4999523;28;20034;-29
2022/01/08 08:06:18;;;;;;;6.95;2.80;;;;;;;25.44;30.40;96299.53;5001248;28;20167;-29
2022/01/08 08:08:44;;;;;;;9.10;2.42;;;;;;;25.44;30.49;96299.53;4990438;28;20088;-30
2022/01/08 08:11:09;;;;;;;6.72;2.40;;;;;;;25.44;30.41;96298.69;5002978;28;20037;-31
2022/01/08 08:13:35;;;;;;;11.52;2.65;;;;;;;25.45;30.29;96306.44;5001826;28;20321;-31
2022/01/08 08:16:00;;;;;;;7.13;2.33;;;;;;;25.45;30.43;96321.38;5002987;28;20059;-29
2022/01/08 08:18:26;;;;;;;5.95;1.90;;;;;;;25.45;30.26;96321.38;5003493;28;20072;-32
2022/01/08 08:20:52;;;;;;;7.28;2.40;;;;;;;25.45;30.36;96327.44;5004364;28;20070;-30
2022/01/08 08:23:17;;;;;;;5.72;2.10;;;;;;;25.45;30.31;96321.38;5002949;28;22304;-37
2022/01/08 08:25:43;;;;;;;5.55;2.45;;;;;;;25.47;30.30;96323.91;5000572;28;20510;-31
2022/01/08 08:28:08;;;;;;;6.60;2.30;;;;;;;25.46;30.16;96330.91;5003434;28;20033;-31
2022/01/08 08:30:34;;;;;;;10.27;2.17;;;;;;;25.46;30.19;96336.16;5006577;28;20033;-35
2022/01/08 08:33:00;;;;;;;7.03;2.38;;;;;;;25.46;30.30;96338.78;5001679;28;20112;-29
2022/01/08 08:35:26;;;;;;;6.20;2.03;;;;;;;25.46;30.54;96344.03;5013524;28;20044;-34
2022/01/08 08:37:51;;;;;;;5.90;1.83;;;;;;;25.48;30.45;96342.19;5000150;28;20085;-31
2022/01/08 08:40:17;;;;;;;3.80;1.60;;;;;;;25.48;30.56;96350.03;5001071;28;20046;-30
2022/01/08 08:42:42;;;;;;;6.32;1.92;;;;;;;25.48;30.49;96360.53;5006378;28;20096;-32
2022/01/08 08:45:08;;;;;;;3.83;2.03;;;;;;;25.48;30.77;96363.16;5001886;28;20033;-33
2022/01/08 08:47:33;;;;;;;8.88;2.10;;;;;;;25.50;30.74;96371.78;5001817;28;20033;-32
2022/01/08 08:49:59;;;;;;;3.72;1.65;;;;;;;25.51;30.72;96373.47;5004997;28;20033;-32
2022/01/08 08:52:25;;;;;;;7.10;1.77;;;;;;;25.52;30.92;96377.75;5002129;28;20468;-30
2022/01/08 08:54:51;;;;;;;5.10;2.05;;;;;;;25.53;30.86;96376.84;5001343;28;20041;-31
2022/01/08 08:57:16;;;;;;;8.13;1.75;;;;;;;25.53;30.88;96374.22;5005002;28;20428;-32
2022/01/08 08:59:41;;;;;;;6.32;1.85;;;;;;;25.54;31.15;96378.53;5006790;28;20033;-29
2022/01/08 09:02:07;;;;;;;5.20;1.52;;;;;;;25.56;30.92;96386.34;5007774;28;20037;-31
2022/01/08 09:04:32;;;;;;;6.57;1.75;;;;;;;25.57;31.07;96396.75;5005473;28;20029;-29
2022/01/08 09:06:58;;;;;;;4.65;1.90;;;;;;;25.58;31.06;96389.72;5006901;28;20091;-28
2022/01/08 09:09:24;;;;;;;5.30;1.95;;;;;;;25.59;30.94;96390.56;5011766;28;20680;-34
2022/01/08 09:11:50;;;;;;;5.07;1.85;;;;;;;25.61;31.05;96401.81;5004866;28;20079;-32
2022/01/08 09:14:15;;;;;;;4.18;1.60;;;;;;;25.62;31.15;96398.28;5006115;28;20029;-29
2022/01/08 09:16:45;;;;;;;5.13;1.73;;;;;;;25.63;31.24;96407.81;5002202;28;20060;-30
2022/01/08 09:19:10;;;;;;;2.88;1.30;;;;;;;25.64;31.06;96409.50;5009528;28;20392;-33
2022/01/08 09:21:36;;;;;;;10.90;1.90;;;;;;;25.65;31.19;96405.94;5002555;28;20096;-30
2022/01/08 09:24:01;;;;;;;5.70;1.20;;;;;;;25.67;31.17;96419.84;5006035;28;20034;-31
2022/01/08 09:26:27;;;;;;;3.28;1.48;;;;;;;25.68;31.15;96416.28;4989725;28;20038;-31
2022/01/08 09:28:52;;;;;;;3.13;1.60;;;;;;;25.68;31.28;96419.75;4989399;28;20041;-31
2022/01/08 09:31:18;;;;;;;3.33;1.40;;;;;;;25.69;31.18;96417.94;4991123;28;20017;-35
2022/01/08 09:33:44;;;;;;;4.78;1.60;;;;;;;25.69;31.18;96423.19;4990602;28;20037;-31
2022/01/08 09:36:09;;;;;;;1.48;0.82;;;;;;;25.71;30.91;96423.97;4987019;28;20044;-33
2022/01/08 09:38:34;;;;;;;5.82;1.50;;;;;;;25.69;30.56;96426.69;4989873;28;20036;-35
2022/01/08 09:41:00;;;;;;;8.18;1.35;;;;;;;25.69;30.50;96428.44;5007009;28;20420;-33
2022/01/08 09:43:26;;;;;;;34.08;1.77;;;;;;;25.68;30.26;96418.91;4999003;28;20053;-29
2022/01/08 09:45:51;;;;;;;14.98;1.73;;;;;;;25.67;30.21;96419.84;5012474;28;20555;-28
2022/01/08 09:48:16;;;;;;;10.63;1.50;;;;;;;25.64;30.19;96430.50;5010684;28;20869;-29
2022/01/08 09:50:42;;;;;;;6.60;1.85;;;;;;;25.59;27.71;96429.94;5002531;28;20033;-30
2022/01/08 09:53:08;;;;;;;4.07;2.00;;;;;;;25.39;23.03;96427.47;5003938;28;20047;-32
2022/01/08 09:55:33;;;;;;;3.80;1.73;;;;;;;25.14;23.03;96435.91;5003950;28;20599;-28
2022/01/08 09:57:59;;;;;;;5.55;1.90;;;;;;;24.93;23.63;96436.16;4999391;28;20029;-31
2022/01/08 10:00:24;;;;;;;8.25;1.60;;;;;;;24.79;24.06;96429.88;4998592;28;20108;-28
2022/01/08 10:02:50;;;;;;;5.47;1.20;;;;;;;24.71;24.67;96426.00;4997723;28;20731;-30
2022/01/08 10:05:16;;;;;;;2.67;1.40;;;;;;;24.68;25.11;96427.00;5009362;28;20490;-29
2022/01/08 10:07:42;;;;;;;11.43;1.95;;;;;;;24.67;25.59;96422.66;4997562;28;20645;-32
2022/01/08 10:10:12;;;;;;;5.47;1.40;;;;;;;24.68;25.88;96427.00;4999115;28;20117;-31
2022/01/08 10:12:45;;;;;;;4.00;1.73;;;;;;;24.70;25.97;96434.78;4998525;28;20121;-29
2022/01/08 10:17:56;;;;;;;3.50;1.50;;;;;;;24.77;26.24;96430.88;5004542;28;20503;-29
2022/01/08 10:20:31;;;;;;;3.60;1.40;;;;;;;24.80;26.47;96428.09;5002909;28;20025;-31
2022/01/08 10:23:20;;;;;;;3.55;1.60;;;;;;;24.82;26.80;96428.03;5000118;28;20064;-30
2022/01/08 10:26:13;;;;;;;4.78;1.30;;;;;;;24.88;26.85;96423.31;5005139;28;20017;-30
2022/01/08 10:28:56;;;;;;;4.57;1.77;;;;;;;24.93;26.98;96433.53;4999898;28;20053;-30
2022/01/08 10:31:38;;;;;;;5.53;1.27;;;;;;;24.96;27.08;96430.75;5002929;28;20093;-29
2022/01/08 10:34:08;;;;;;;;;;;;;;;24.99;27.40;96432.34;4995240;28;20503;-30
2022/01/08 10:36:36;;;;;;;9.15;2.53;;;;;;;25.01;27.60;96433.09;5000821;28;19918;-28
2022/01/08 10:39:04;;;;;;;11.57;3.30;;;;;;;25.03;27.86;96437.38;5006153;28;20030;-32
2022/01/08 10:41:29;;;;;;;13.73;3.58;;;;;;;25.07;27.94;96439.78;5006319;28;20038;-32
2022/01/08 10:44:28;;;;;;;11.18;2.90;;;;;;;25.17;28.05;96433.94;5007857;28;20056;-31
2022/01/08 10:47:00;;;;;;;12.68;3.33;;;;;;;25.30;28.12;96426.25;4983752;28;20045;-31
2022/01/08 10:49:33;;;;;;;11.30;2.78;;;;;;;25.47;27.88;96418.34;5000964;28;20530;-34
2022/01/08 10:52:01;;;;;;;13.65;3.08;;;;;;;25.64;27.83;96404.25;5008420;28;20025;-30
2022/01/08 10:54:30;;;;;;;11.32;2.83;;;;;;;25.83;27.53;96401.41;5003378;28;20040;-33
2022/01/08 10:56:59;;;;;;;17.45;2.80;;;;;;;26.04;27.44;96395.78;5007982;28;20044;-31
2022/01/08 10:59:25;;;;;;;10.00;2.95;;;;;;;26.25;27.25;96404.16;5002907;28;20112;-32
2022/01/08 11:02:01;;;;;;;13.90;2.83;;;;;;;26.45;27.08;96415.25;5001488;28;20057;-36
2022/01/08 11:04:33;;;;;;;10.95;2.92;;;;;;;26.66;26.89;96410.41;5001649;28;20026;-32
2022/01/08 11:07:05;;;;;;;9.10;2.55;;;;;;;26.86;26.71;96414.41;5007056;28;20049;-30
2022/01/08 11:09:30;;;;;;;11.35;3.05;;;;;;;27.05;26.75;96415.91;5005360;28;20667;-30
2022/01/08 11:11:58;;;;;;;9.35;2.30;;;;;;;27.21;26.32;96407.03;4999194;28;20220;-34
2022/01/08 11:17:34;;;;;;;10.90;2.60;;;;;;;27.51;25.97;96398.88;4977618;28;20123;-32
2022/01/08 11:20:04;;;;;;;9.57;2.70;;;;;;;27.62;25.85;96395.56;5003313;28;20025;-35
2022/01/08 11:22:30;;;;;;;7.88;2.53;;;;;;;27.73;25.93;96391.38;5000983;28;20056;-33
2022/01/08 11:25:06;;;;;;;10.18;2.67;;;;;;;27.81;25.77;96389.09;5004724;28;20079;-30
2022/01/08 11:27:57;;;;;;;6.68;2.08;;;;;;;27.89;25.61;96386.75;5006030;28;20026;-33
2022/01/08 11:30:25;;;;;;;7.30;2.45;;;;;;;27.97;25.67;96383.59;4990851;28;20033;-32
2022/01/08 11:32:55;;;;;;;11.68;2.58;;;;;;;28.02;25.65;96372.75;5005349;28;20033;-31
2022/01/08 11:35:22;;;;;;;5.95;2.08;;;;;;;28.06;25.61;96382.13;5003976;28;20488;-32
2022/01/08 11:37:49;;;;;;;10.15;2.30;;;;;;;28.07;25.57;96375.91;5007470;28;20065;-33
2022/01/08 11:40:17;;;;;;;6.63;2.20;;;;;;;28.08;25.43;96368.84;5004123;28;20056;-32
2022/01/08 11:42:42;;;;;;;4.78;1.90;;;;;;;28.08;25.51;96369.69;5007905;28;20025;-29
2022/01/08 11:45:10;;;;;;;6.18;2.10;;;;;;;28.08;25.43;96360.94;5017070;28;20037;-32
2022/01/08 11:47:35;;;;;;;10.50;2.20;;;;;;;28.07;25.68;96357.44;5004864;28;20029;-31
2022/01/08 11:50:03;;;;;;;6.15;1.92;;;;;;;28.06;25.94;96355.78;5009565;28;20038;-32
2022/01/08 11:52:28;;;;;;;7.10;1.80;;;;;;;28.04;26.06;96349.78;5002452;28;20067;-31